Tillery, North Carolina
Current Conditions -  °F | °C
As of 1:35 PM on Thursday 30 Oct 2014 (Local Time) from KIXA Reporting Station
Scattered Clouds Scattered Clouds  
Wind Chill: 61°   Ceiling: Unl
Heat Index: 61°   Visibility: 10mi
Dew Point: 45°   Wind: 6mph
Humidity: 55%   Direction: 30°NNE
Pressure: 30.01"   Gusts: NA
Location:  36.25°N, 77.49°W
Report Text: KIXA 301735Z AUTO 03005KT 10SM SCT038 SCT045 16/07 A3001 RMK AO2
Loading
Personal Weather Stations






























Interactive Weather Map
Tropical Storm Tracking
New forecast layout! Learn more

10-Day Weather Forecast

Advertisements
Track Severe Weather on mobile